Time;durP1;ratioP1;P1;durP2;ratioP2;P2;SDS_P1;SDS_P2;PMS_P1;PMS_P2;Temp;Humidity;BMP_temperature;BMP_pressure;BME280_temperature;BME280_humidity;BME280_pressure;Samples;Min_cycle;Max_cycle;Signal;HPM_P1;HPM_P2
2022/03/05 00:01:22;;;;;;;9.07;5.50;;;26.50;99.90;;;;;;6156421;23;20132;-76
2022/03/05 00:03:50;;;;;;;8.63;5.97;;;26.60;99.90;;;;;;6129985;23;20447;-74
2022/03/05 00:06:17;;;;;;;9.23;5.57;;;26.60;99.90;;;;;;6156770;23;20016;-75
2022/03/05 00:08:44;;;;;;;10.00;6.10;;;26.70;99.90;;;;;;6130272;23;20005;-75
2022/03/05 00:11:11;;;;;;;10.30;6.45;;;26.80;99.90;;;;;;6130245;23;20064;-75
2022/03/05 00:13:39;;;;;;;10.02;6.78;;;26.90;99.90;;;;;;6156435;23;20005;-74
2022/03/05 00:16:06;;;;;;;9.75;6.80;;;27.00;99.90;;;;;;6130105;23;20001;-74
2022/03/05 00:18:33;;;;;;;12.57;7.50;;;27.30;99.90;;;;;;6156497;23;19997;-75
2022/03/05 00:21:01;;;;;;;11.85;8.30;;;27.40;99.90;;;;;;6155777;23;20055;-76
2022/03/05 00:23:28;;;;;;;12.70;8.88;;;27.10;99.90;;;;;;6156306;23;20086;-74
2022/03/05 00:25:55;;;;;;;13.20;9.85;;;27.30;99.90;;;;;;6130467;23;20460;-74
2022/03/05 00:28:23;;;;;;;13.32;10.30;;;27.50;99.90;;;;;;6156380;23;20002;-74
2022/03/05 00:30:50;;;;;;;12.27;9.63;;;27.60;99.90;;;;;;6156104;23;20006;-74
2022/03/05 00:33:19;;;;;;;12.55;9.40;;;27.60;99.90;;;;;;6156368;23;20423;-74
2022/03/05 00:35:47;;;;;;;13.33;9.60;;;27.60;99.90;;;;;;6156195;23;20028;-75
2022/03/05 00:38:14;;;;;;;15.63;11.57;;;27.40;99.90;;;;;;6155961;23;20008;-75
2022/03/05 00:40:41;;;;;;;13.38;10.05;;;27.70;99.90;;;;;;6155954;23;20006;-74
2022/03/05 00:43:09;;;;;;;16.05;11.00;;;27.90;99.90;;;;;;6156055;23;20006;-74
2022/03/05 00:45:37;;;;;;;12.02;10.43;;;27.90;99.90;;;;;;6156155;23;20005;-74
2022/03/05 00:48:05;;;;;;;11.75;9.88;;;27.90;99.90;;;;;;6130084;23;20038;-74
2022/03/05 00:50:32;;;;;;;13.23;10.32;;;27.90;99.90;;;;;;6129627;23;20009;-75
2022/03/05 00:53:00;;;;;;;13.15;10.25;;;27.70;99.90;;;;;;6129717;23;20016;-74
2022/03/05 00:55:27;;;;;;;11.60;10.32;;;27.80;99.90;;;;;;6129766;23;20029;-74
2022/03/05 00:57:55;;;;;;;11.55;10.38;;;27.50;99.90;;;;;;6156356;23;20077;-74
2022/03/05 01:00:22;;;;;;;13.65;9.85;;;27.50;99.90;;;;;;6155686;23;20419;-75
2022/03/05 01:02:49;;;;;;;12.05;10.40;;;27.40;99.90;;;;;;6155998;23;20010;-74
2022/03/05 01:05:17;;;;;;;12.73;10.23;;;27.50;99.90;;;;;;6155649;23;20367;-74
2022/03/05 01:07:44;;;;;;;13.00;11.10;;;27.30;99.90;;;;;;6156106;23;20312;-74
2022/03/05 01:10:11;;;;;;;13.55;10.32;;;27.10;99.90;;;;;;6155878;23;20022;-74
2022/03/05 01:12:39;;;;;;;10.90;9.75;;;27.00;99.90;;;;;;6155925;23;20488;-74
2022/03/05 01:15:07;;;;;;;11.52;10.07;;;27.00;99.90;;;;;;6156106;23;20069;-74
2022/03/05 01:17:35;;;;;;;11.98;10.57;;;27.20;99.90;;;;;;6129935;23;20056;-74
2022/03/05 01:20:03;;;;;;;10.55;9.45;;;27.20;99.90;;;;;;6156005;23;19997;-74
2022/03/05 01:22:31;;;;;;;13.05;9.82;;;27.20;99.90;;;;;;6156255;23;20059;-74
2022/03/05 01:24:58;;;;;;;11.77;9.93;;;27.30;99.90;;;;;;6155928;23;19998;-74
2022/03/05 01:27:25;;;;;;;11.68;10.38;;;27.30;99.90;;;;;;6156147;23;20424;-74
2022/03/05 01:29:52;;;;;;;12.18;9.40;;;27.30;99.90;;;;;;6129804;23;20001;-74
2022/03/05 01:32:20;;;;;;;10.90;8.77;;;27.30;99.90;;;;;;6155878;23;20025;-74
2022/03/05 01:34:47;;;;;;;9.30;8.38;;;27.30;99.90;;;;;;6156159;23;19998;-73
2022/03/05 01:37:14;;;;;;;9.85;8.40;;;27.30;99.90;;;;;;6129375;23;20002;-74
2022/03/05 01:39:43;;;;;;;10.45;9.07;;;27.40;99.90;;;;;;6129544;23;20012;-73
2022/03/05 01:42:10;;;;;;;11.43;9.32;;;27.60;99.90;;;;;;6129407;23;20009;-75
2022/03/05 01:44:37;;;;;;;10.43;9.32;;;27.70;99.90;;;;;;6155896;23;20008;-74
2022/03/05 01:47:05;;;;;;;12.98;8.25;;;27.90;99.90;;;;;;6155690;23;20081;-76
2022/03/05 01:49:33;;;;;;;9.73;7.18;;;28.00;99.90;;;;;;6155550;23;20006;-75
2022/03/05 01:52:00;;;;;;;16.00;7.53;;;28.00;99.90;;;;;;6129318;23;20439;-75
2022/03/05 01:54:28;;;;;;;12.45;5.32;;;28.30;99.90;;;;;;6156011;23;20064;-75
2022/03/05 01:56:56;;;;;;;13.35;5.40;;;28.40;99.90;;;;;;6156076;23;19998;-75
2022/03/05 01:59:25;;;;;;;14.40;6.45;;;28.40;99.90;;;;;;6155902;23;20001;-75
2022/03/05 02:01:53;;;;;;;16.33;6.10;;;28.40;99.90;;;;;;6156189;23;20002;-74
2022/03/05 02:04:20;;;;;;;15.35;5.13;;;28.20;99.90;;;;;;6129467;23;20057;-73
2022/03/05 02:06:48;;;;;;;11.82;4.53;;;27.90;99.90;;;;;;6155681;23;20012;-74
2022/03/05 02:09:15;;;;;;;14.32;4.60;;;27.70;99.90;;;;;;6155941;23;20005;-74
2022/03/05 02:11:43;;;;;;;14.82;4.85;;;27.40;99.90;;;;;;6155751;23;20014;-74
2022/03/05 02:14:10;;;;;;;16.27;5.25;;;27.30;99.90;;;;;;6155730;23;19997;-73
2022/03/05 02:16:38;;;;;;;16.30;5.03;;;27.20;99.90;;;;;;6155716;23;20332;-74
2022/03/05 02:19:05;;;;;;;10.65;4.43;;;27.30;99.90;;;;;;6155791;23;20069;-73
2022/03/05 02:21:32;;;;;;;10.23;4.55;;;27.30;99.90;;;;;;6129423;23;20016;-73
2022/03/05 02:24:00;;;;;;;10.38;4.70;;;27.40;99.90;;;;;;6156049;23;20057;-74
2022/03/05 02:26:27;;;;;;;9.98;4.88;;;27.30;99.90;;;;;;6155828;23;20009;-74
2022/03/05 02:28:55;;;;;;;9.48;5.07;;;27.60;99.90;;;;;;6155879;23;20021;-74
2022/03/05 02:31:23;;;;;;;9.73;5.00;;;27.30;99.90;;;;;;6155868;23;20005;-74
2022/03/05 02:33:55;;;;;;;14.57;5.55;;;27.40;99.90;;;;;;6155880;23;20001;-74
2022/03/05 02:36:25;;;;;;;9.48;5.75;;;27.60;99.90;;;;;;6156056;23;20029;-74
2022/03/05 02:38:53;;;;;;;13.25;6.45;;;27.60;99.90;;;;;;6156139;23;20280;-74
2022/03/05 02:41:20;;;;;;;12.48;6.68;;;27.40;99.90;;;;;;6155761;23;20073;-74
2022/03/05 02:43:48;;;;;;;10.15;5.78;;;27.70;99.90;;;;;;6129705;23;20013;-74
2022/03/05 02:46:15;;;;;;;9.65;5.35;;;27.80;99.90;;;;;;6131430;23;20005;-74
2022/03/05 02:48:43;;;;;;;9.32;5.57;;;27.50;99.90;;;;;;6157391;23;20068;-74
2022/03/05 02:51:10;;;;;;;11.73;5.43;;;27.40;99.90;;;;;;6157428;23;20454;-74
2022/03/05 02:53:37;;;;;;;9.55;4.18;;;27.20;99.90;;;;;;6157553;23;20027;-74
2022/03/05 02:56:05;;;;;;;8.43;4.85;;;27.20;99.90;;;;;;6157732;23;19998;-75
2022/03/05 02:58:32;;;;;;;9.60;4.88;;;27.30;99.90;;;;;;6157591;23;20048;-74
2022/03/05 03:01:00;;;;;;;10.15;4.50;;;27.60;99.90;;;;;;6157871;23;20005;-74
2022/03/05 03:03:27;;;;;;;11.10;4.78;;;27.90;99.90;;;;;;6156905;23;20060;-75
2022/03/05 03:05:54;;;;;;;11.40;3.90;;;28.30;99.90;;;;;;6157168;23;20013;-75
2022/03/05 03:08:22;;;;;;;7.43;3.13;;;28.50;99.90;;;;;;6157657;23;20001;-76
2022/03/05 03:10:49;;;;;;;7.28;2.70;;;29.30;99.90;;;;;;6157044;23;20447;-75
2022/03/05 03:13:16;;;;;;;5.40;2.63;;;29.30;99.90;;;;;;6131524;23;20006;-76
2022/03/05 03:15:44;;;;;;;8.93;3.00;;;29.00;99.90;;;;;;6157516;23;20049;-76
2022/03/05 03:18:11;;;;;;;8.10;2.95;;;28.60;99.90;;;;;;6131179;23;20002;-77
2022/03/05 03:20:38;;;;;;;6.72;2.60;;;28.40;99.90;;;;;;6157405;23;20438;-75
2022/03/05 03:23:06;;;;;;;7.57;2.40;;;28.40;99.90;;;;;;6157607;23;20005;-76
2022/03/05 03:25:33;;;;;;;6.70;2.60;;;28.50;99.90;;;;;;6157638;23;20063;-77
2022/03/05 03:28:00;;;;;;;8.18;2.90;;;28.50;99.90;;;;;;6157824;23;20084;-77
2022/03/05 03:30:28;;;;;;;6.65;2.47;;;28.60;99.90;;;;;;6157331;23;20009;-77
2022/03/05 03:32:55;;;;;;;5.45;2.42;;;28.50;99.90;;;;;;6157483;23;20085;-77
2022/03/05 03:35:23;;;;;;;5.60;2.10;;;28.10;99.90;;;;;;6131479;23;20009;-76
2022/03/05 03:37:51;;;;;;;7.35;2.33;;;28.00;99.90;;;;;;6131701;23;20017;-76
2022/03/05 03:40:19;;;;;;;7.00;1.75;;;27.90;99.90;;;;;;6157487;23;20064;-77
2022/03/05 03:42:50;;;;;;;5.15;1.92;;;27.80;99.90;;;;;;6157939;23;20065;-76
2022/03/05 03:45:18;;;;;;;7.13;2.60;;;27.50;99.90;;;;;;6131257;23;20032;-76
2022/03/05 03:47:50;;;;;;;5.68;2.60;;;27.50;99.90;;;;;;6130960;23;20009;-76
2022/03/05 03:50:20;;;;;;;6.05;2.33;;;27.40;99.90;;;;;;6157530;23;20454;-76
2022/03/05 03:52:48;;;;;;;10.18;2.22;;;27.40;99.90;;;;;;6157220;23;20005;-75
2022/03/05 03:55:17;;;;;;;10.18;2.40;;;27.30;99.90;;;;;;6130899;23;20005;-76
2022/03/05 03:57:45;;;;;;;6.40;2.25;;;27.30;99.90;;;;;;6157143;23;20081;-76
2022/03/05 04:00:15;;;;;;;8.80;2.35;;;27.10;99.90;;;;;;6157104;23;20002;-75
2022/03/05 04:02:46;;;;;;;7.38;2.42;;;27.00;99.90;;;;;;6157401;23;20025;-75
2022/03/05 04:05:13;;;;;;;8.50;2.28;;;27.00;99.90;;;;;;6156539;23;20458;-76
2022/03/05 04:10:26;;;;;;;4.72;1.70;;;27.00;99.90;;;;;;6157107;23;20016;-74
2022/03/05 04:12:54;;;;;;;6.45;1.70;;;27.10;99.90;;;;;;6130813;23;20009;-75
2022/03/05 04:15:21;;;;;;;5.63;1.70;;;27.30;99.90;;;;;;6157503;23;20435;-75
2022/03/05 04:17:50;;;;;;;5.45;1.60;;;27.70;99.90;;;;;;6156914;23;20419;-74
2022/03/05 04:20:18;;;;;;;4.07;1.30;;;27.90;99.90;;;;;;6130736;23;20108;-76
2022/03/05 04:22:45;;;;;;;6.50;1.77;;;28.50;99.90;;;;;;6156670;23;20017;-74
2022/03/05 04:25:12;;;;;;;7.40;1.48;;;29.10;99.90;;;;;;6130065;23;20013;-75
2022/03/05 04:27:40;;;;;;;3.65;1.17;;;29.00;99.90;;;;;;6156403;23;20434;-77
2022/03/05 04:30:08;;;;;;;4.88;1.13;;;29.10;99.90;;;;;;6129920;23;20013;-75
2022/03/05 04:32:37;;;;;;;6.22;1.75;;;29.20;99.90;;;;;;6155754;23;20438;-76
2022/03/05 04:35:06;;;;;;;4.93;1.65;;;29.20;99.90;;;;;;6155821;23;20001;-75
2022/03/05 04:37:33;;;;;;;5.78;1.58;;;28.70;99.90;;;;;;6129986;23;20033;-74
2022/03/05 04:40:00;;;;;;;4.28;1.10;;;28.70;99.90;;;;;;6156066;23;20001;-76
2022/03/05 04:42:28;;;;;;;6.15;1.23;;;29.30;99.90;;;;;;6156207;23;20006;-75
2022/03/05 04:44:55;;;;;;;6.10;1.33;;;29.70;99.90;;;;;;6129760;23;20002;-74
2022/03/05 04:47:23;;;;;;;4.93;1.13;;;29.40;99.90;;;;;;6129693;23;20071;-74
2022/03/05 04:49:50;;;;;;;5.65;1.30;;;29.20;99.90;;;;;;6129398;23;20010;-74
2022/03/05 04:52:17;;;;;;;4.47;1.10;;;28.70;99.90;;;;;;6155619;23;20025;-73
2022/03/05 04:54:44;;;;;;;4.45;1.13;;;28.80;99.90;;;;;;6156359;23;19998;-74
2022/03/05 04:57:12;;;;;;;6.35;1.30;;;29.00;99.90;;;;;;6155928;23;20057;-74
2022/03/05 04:59:39;;;;;;;4.88;1.48;;;29.20;99.90;;;;;;6155720;23;20005;-74
2022/03/05 05:02:06;;;;;;;3.78;1.02;;;29.50;99.90;;;;;;6155394;23;20009;-74
2022/03/05 05:04:34;;;;;;;5.68;1.20;;;29.40;99.90;;;;;;6155140;23;20029;-73
2022/03/05 05:07:01;;;;;;;4.90;1.40;;;29.50;99.90;;;;;;6155609;23;20315;-74
2022/03/05 05:09:30;;;;;;;6.13;1.52;;;29.70;99.90;;;;;;6155610;23;20081;-74
2022/03/05 05:11:57;;;;;;;5.72;1.20;;;29.30;99.90;;;;;;6128769;23;20020;-74
2022/03/05 05:14:25;;;;;;;5.88;1.52;;;28.80;99.90;;;;;;6155371;23;20104;-74
2022/03/05 05:16:53;;;;;;;4.18;1.20;;;28.70;99.90;;;;;;6105208;23;20064;-74
2022/03/05 05:19:29;;;;;;;5.90;1.48;;;28.60;99.90;;;;;;6156202;23;20102;-74
2022/03/05 05:22:05;;;;;;;8.05;1.75;;;28.30;99.90;;;;;;6129660;23;20009;-74
2022/03/05 05:24:34;;;;;;;3.03;0.90;;;28.20;99.90;;;;;;6156176;23;20016;-73
2022/03/05 05:27:02;;;;;;;4.63;1.30;;;28.00;99.90;;;;;;6156066;23;20059;-74
2022/03/05 05:29:30;;;;;;;7.15;1.52;;;27.70;99.90;;;;;;6156024;23;20009;-74
2022/03/05 05:31:58;;;;;;;6.38;1.10;;;27.90;99.90;;;;;;6155933;23;20029;-73
2022/03/05 05:34:26;;;;;;;6.80;1.20;;;27.70;99.90;;;;;;6155924;23;20008;-74
2022/03/05 05:36:53;;;;;;;2.90;0.77;;;27.70;99.90;;;;;;6155973;23;20001;-74
2022/03/05 05:39:20;;;;;;;4.72;1.20;;;27.60;99.90;;;;;;6155902;23;20024;-74
2022/03/05 05:41:48;;;;;;;4.93;1.13;;;27.60;99.90;;;;;;6155905;23;20001;-74
2022/03/05 05:44:15;;;;;;;3.80;0.90;;;27.70;99.90;;;;;;6156269;23;20002;-75
2022/03/05 05:46:43;;;;;;;2.13;0.70;;;27.90;99.90;;;;;;6156600;23;20012;-76
2022/03/05 05:49:10;;;;;;;3.70;0.88;;;28.20;99.90;;;;;;6156450;23;20008;-76
2022/03/05 05:51:38;;;;;;;4.78;0.88;;;28.20;99.90;;;;;;6156075;23;20418;-76
2022/03/05 05:54:05;;;;;;;5.38;1.00;;;28.00;99.90;;;;;;6155872;23;20088;-75
2022/03/05 05:56:32;;;;;;;3.80;0.75;;;27.80;99.90;;;;;;6156553;23;20312;-76
2022/03/05 05:59:00;;;;;;;3.70;0.90;;;27.90;99.90;;;;;;6156623;23;20002;-76
2022/03/05 06:01:27;;;;;;;5.25;1.17;;;28.00;99.90;;;;;;6130148;23;20006;-76
2022/03/05 06:03:55;;;;;;;3.60;0.70;;;28.00;99.90;;;;;;6129793;23;20005;-76
2022/03/05 06:06:23;;;;;;;4.80;2.70;;;27.90;99.90;;;;;;6156663;23;20036;-77
2022/03/05 06:08:51;;;;;;;3.20;0.73;;;27.90;99.90;;;;;;6130203;23;20017;-76
2022/03/05 06:11:18;;;;;;;2.80;0.80;;;27.90;99.90;;;;;;6156493;23;20009;-76
2022/03/05 06:13:49;;;;;;;3.42;1.15;;;28.10;99.90;;;;;;6156327;23;20005;-76
2022/03/05 06:16:16;;;;;;;5.38;1.45;;;28.00;99.90;;;;;;6156244;23;20008;-75
2022/03/05 06:18:44;;;;;;;4.00;1.00;;;27.90;99.90;;;;;;6156691;23;20137;-75
2022/03/05 06:21:11;;;;;;;5.57;1.33;;;28.00;99.90;;;;;;6132050;23;20006;-75
2022/03/05 06:23:38;;;;;;;3.70;1.20;;;28.00;99.90;;;;;;6131980;23;20312;-74
2022/03/05 06:26:06;;;;;;;4.80;1.08;;;28.10;99.90;;;;;;6158197;23;20005;-74
2022/03/05 06:28:34;;;;;;;3.53;1.00;;;28.10;99.90;;;;;;6158207;23;20008;-76
2022/03/05 06:31:02;;;;;;;3.85;1.13;;;27.90;99.90;;;;;;6158459;23;20057;-77
2022/03/05 06:33:30;;;;;;;4.60;1.35;;;27.40;99.90;;;;;;6158360;23;20330;-76
2022/03/05 06:35:58;;;;;;;2.92;0.95;;;27.20;99.90;;;;;;6158530;23;20442;-76
2022/03/05 06:38:25;;;;;;;6.90;1.00;;;27.00;99.90;;;;;;6158081;23;20005;-75
2022/03/05 06:40:52;;;;;;;4.35;0.77;;;26.80;99.90;;;;;;6158302;23;20443;-76
2022/03/05 06:43:20;;;;;;;4.82;1.20;;;26.70;99.90;;;;;;6158067;23;20430;-76
2022/03/05 06:45:47;;;;;;;4.32;1.20;;;26.60;99.90;;;;;;6158120;23;20012;-75
2022/03/05 06:48:15;;;;;;;5.15;1.77;;;26.60;99.90;;;;;;6157862;23;20005;-75
2022/03/05 06:50:42;;;;;;;4.68;1.20;;;26.40;99.90;;;;;;6131539;23;20059;-74
2022/03/05 06:53:09;;;;;;;4.88;1.25;;;26.10;99.90;;;;;;6157930;23;20024;-75
2022/03/05 06:55:37;;;;;;;4.20;0.95;;;26.00;99.90;;;;;;6131224;23;20001;-75
2022/03/05 06:58:04;;;;;;;3.70;1.17;;;25.90;99.90;;;;;;6157946;23;20001;-74
2022/03/05 07:00:32;;;;;;;5.68;1.20;;;25.60;99.90;;;;;;6158000;23;20005;-75
2022/03/05 07:02:59;;;;;;;6.68;1.30;;;25.50;99.90;;;;;;6131627;23;20029;-74
2022/03/05 07:05:26;;;;;;;4.35;1.30;;;25.50;99.90;;;;;;6108946;23;20025;-75
2022/03/05 07:07:54;;;;;;;4.00;1.02;;;25.50;99.90;;;;;;6128454;23;20336;-75
2022/03/05 07:10:21;;;;;;;4.65;1.60;;;25.40;99.90;;;;;;6128201;23;20021;-75
2022/03/05 07:12:48;;;;;;;5.97;1.52;;;25.20;99.90;;;;;;6128559;23;20008;-76
2022/03/05 07:15:16;;;;;;;6.28;1.42;;;25.10;99.90;;;;;;6102462;23;20009;-75
2022/03/05 07:17:51;;;;;;;7.43;1.70;;;25.10;99.90;;;;;;6102356;23;20089;-75
2022/03/05 07:20:19;;;;;;;5.82;1.05;;;25.00;99.90;;;;;;6102671;23;20443;-76
2022/03/05 07:22:46;;;;;;;5.18;1.63;;;24.90;99.90;;;;;;6102387;23;20394;-76
2022/03/05 07:25:14;;;;;;;6.40;1.70;;;24.90;99.90;;;;;;6128275;23;20378;-75
2022/03/05 07:27:42;;;;;;;6.47;1.52;;;24.80;99.90;;;;;;6128613;23;20005;-75
2022/03/05 07:30:10;;;;;;;8.25;1.45;;;24.80;99.90;;;;;;6128144;23;20009;-75
2022/03/05 07:32:38;;;;;;;11.73;4.65;;;24.70;99.90;;;;;;6103063;23;20111;-74
2022/03/05 07:35:06;;;;;;;5.80;2.03;;;24.70;99.90;;;;;;6102251;23;20347;-75
2022/03/05 07:37:35;;;;;;;4.63;1.30;;;24.70;99.90;;;;;;6128071;23;20073;-76
2022/03/05 07:40:05;;;;;;;4.72;1.52;;;24.70;99.90;;;;;;6128338;23;20061;-75
2022/03/05 07:42:32;;;;;;;9.13;1.75;;;24.60;99.90;;;;;;6102491;23;20009;-76
2022/03/05 07:45:00;;;;;;;7.63;1.90;;;24.60;99.90;;;;;;6128271;23;20004;-75
2022/03/05 07:47:27;;;;;;;4.57;1.25;;;24.50;99.90;;;;;;6128000;23;20077;-76
2022/03/05 07:49:54;;;;;;;7.78;1.95;;;24.40;99.90;;;;;;6128621;23;20013;-74
2022/03/05 07:52:22;;;;;;;6.47;1.65;;;24.40;99.90;;;;;;6102025;23;20033;-74
2022/03/05 07:54:49;;;;;;;8.00;1.52;;;24.30;99.90;;;;;;6128601;23;20002;-75
2022/03/05 07:57:16;;;;;;;8.18;2.25;;;24.20;99.90;;;;;;6128293;23;20002;-76
2022/03/05 07:59:44;;;;;;;5.88;1.50;;;24.20;99.90;;;;;;6102349;23;20446;-77
2022/03/05 08:02:11;;;;;;;11.80;3.90;;;24.20;99.90;;;;;;6128303;23;20009;-76
2022/03/05 08:04:38;;;;;;;7.65;1.80;;;24.20;99.90;;;;;;6139915;23;20009;-76
2022/03/05 08:07:07;;;;;;;6.80;1.73;;;24.20;99.90;;;;;;6157845;23;20008;-75
2022/03/05 08:09:36;;;;;;;7.07;1.95;;;24.20;99.90;;;;;;6131766;23;20101;-76
2022/03/05 08:12:06;;;;;;;6.93;1.80;;;24.10;99.90;;;;;;6157978;23;20005;-77
2022/03/05 08:14:34;;;;;;;8.77;1.80;;;24.00;99.90;;;;;;6131402;23;20343;-75
2022/03/05 08:17:01;;;;;;;7.93;1.55;;;24.10;99.90;;;;;;6157503;23;20001;-75
2022/03/05 08:19:28;;;;;;;9.00;1.75;;;24.00;99.90;;;;;;6157729;23;19997;-75
2022/03/05 08:21:56;;;;;;;8.32;1.80;;;24.00;99.90;;;;;;6156929;23;20110;-75
2022/03/05 08:24:23;;;;;;;8.18;1.80;;;24.00;99.90;;;;;;6156749;23;20025;-76
2022/03/05 08:26:50;;;;;;;7.50;2.00;;;24.00;99.90;;;;;;6157213;23;20056;-75
2022/03/05 08:29:18;;;;;;;7.95;2.08;;;24.00;99.90;;;;;;6157169;23;20423;-75
2022/03/05 08:31:45;;;;;;;8.10;2.22;;;23.90;99.90;;;;;;6157261;23;20009;-75
2022/03/05 08:34:12;;;;;;;6.95;2.00;;;23.90;99.90;;;;;;6131318;23;20020;-75
2022/03/05 08:36:40;;;;;;;8.30;2.15;;;23.90;99.90;;;;;;6157407;23;20005;-75
2022/03/05 08:39:07;;;;;;;10.32;2.38;;;23.90;99.90;;;;;;6130897;23;20014;-75
2022/03/05 08:41:35;;;;;;;9.68;2.50;;;23.80;99.90;;;;;;6130926;23;20056;-76
2022/03/05 08:44:02;;;;;;;10.25;2.70;;;23.80;99.90;;;;;;6157072;23;20002;-76
2022/03/05 08:46:30;;;;;;;8.57;1.98;;;23.80;99.90;;;;;;6157457;23;20450;-76
2022/03/05 08:48:57;;;;;;;8.57;4.03;;;23.80;99.90;;;;;;6157060;23;20005;-75
2022/03/05 08:51:24;;;;;;;14.35;3.08;;;23.80;99.90;;;;;;6130701;23;20005;-75
2022/03/05 08:53:51;;;;;;;12.18;2.97;;;23.80;99.90;;;;;;6157278;23;20323;-74
2022/03/05 08:56:19;;;;;;;9.63;2.20;;;23.80;99.90;;;;;;6156901;23;20331;-74
2022/03/05 08:58:46;;;;;;;10.02;2.45;;;23.70;99.90;;;;;;6156995;23;20426;-75
2022/03/05 09:01:13;;;;;;;8.98;2.50;;;23.80;99.90;;;;;;6131044;23;20064;-75
2022/03/05 09:03:42;;;;;;;9.15;2.28;;;23.70;99.90;;;;;;6156903;23;20027;-76
2022/03/05 09:06:09;;;;;;;12.68;2.85;;;23.70;99.90;;;;;;6130783;23;20024;-74
2022/03/05 09:08:38;;;;;;;11.73;2.80;;;23.70;99.90;;;;;;6157001;23;20036;-75
2022/03/05 09:11:08;;;;;;;10.48;2.42;;;23.70;99.90;;;;;;6130729;23;20013;-75
2022/03/05 09:13:36;;;;;;;9.32;2.03;;;23.70;99.90;;;;;;6130477;23;20493;-74
2022/03/05 09:16:04;;;;;;;11.02;2.78;;;23.70;99.90;;;;;;6157046;23;20001;-74
2022/03/05 09:18:31;;;;;;;13.45;3.03;;;23.70;99.90;;;;;;6130843;23;20001;-75
2022/03/05 09:20:58;;;;;;;8.38;2.00;;;23.70;99.90;;;;;;6156749;23;20005;-75
2022/03/05 09:23:26;;;;;;;9.85;2.83;;;23.70;99.90;;;;;;6156553;23;20005;-74
2022/03/05 09:25:53;;;;;;;10.70;2.42;;;23.70;99.90;;;;;;6130400;23;20005;-74
2022/03/05 09:28:20;;;;;;;12.27;3.10;;;23.70;99.90;;;;;;6156659;23;20387;-74
2022/03/05 09:30:48;;;;;;;13.10;3.30;;;23.70;99.90;;;;;;6130506;23;20092;-74
2022/03/05 09:33:15;;;;;;;8.73;2.35;;;23.60;99.90;;;;;;6129854;23;20005;-76
2022/03/05 09:35:43;;;;;;;12.57;2.75;;;23.60;99.90;;;;;;6130330;23;20423;-76
2022/03/05 09:38:11;;;;;;;10.90;2.50;;;23.70;99.90;;;;;;6156880;23;20385;-75
2022/03/05 09:40:39;;;;;;;9.75;2.60;;;23.70;99.90;;;;;;6157128;23;20423;-73
2022/03/05 09:43:07;;;;;;;11.10;2.53;;;23.60;99.90;;;;;;6130552;23;20505;-74
2022/03/05 09:45:35;;;;;;;14.23;2.60;;;23.60;99.90;;;;;;6130652;23;20016;-75
2022/03/05 09:48:02;;;;;;;11.05;2.60;;;23.60;99.90;;;;;;6130905;23;20006;-75
2022/03/05 09:50:32;;;;;;;11.07;2.70;;;23.60;99.90;;;;;;6156604;23;20079;-75
2022/03/05 09:53:00;;;;;;;12.70;2.55;;;23.60;99.90;;;;;;6157505;23;20430;-74
2022/03/05 09:55:29;;;;;;;13.52;2.90;;;23.60;99.90;;;;;;6160311;23;20001;-75
2022/03/05 09:57:57;;;;;;;11.32;2.30;;;23.60;99.90;;;;;;6133753;23;20427;-75
2022/03/05 10:00:24;;;;;;;12.60;2.83;;;23.60;99.90;;;;;;6133825;23;20064;-76
2022/03/05 10:02:52;;;;;;;10.60;2.63;;;23.60;99.90;;;;;;6159946;23;20012;-75
2022/03/05 10:05:26;;;;;;;12.02;3.05;;;23.60;99.90;;;;;;6159818;23;20033;-75
2022/03/05 10:08:01;;;;;;;11.63;3.08;;;23.60;99.90;;;;;;6160144;23;20009;-75
2022/03/05 10:10:29;;;;;;;14.73;3.08;;;23.50;99.90;;;;;;6133433;23;20343;-75
2022/03/05 10:12:56;;;;;;;11.45;2.80;;;23.60;99.90;;;;;;6160132;23;20005;-74
2022/03/05 10:15:24;;;;;;;12.25;2.92;;;23.50;99.90;;;;;;6159927;23;20024;-74
2022/03/05 10:17:59;;;;;;;12.10;2.58;;;23.50;99.90;;;;;;6160052;23;20445;-74
2022/03/05 10:20:33;;;;;;;11.85;2.75;;;23.50;99.90;;;;;;6159873;23;20028;-74
2022/03/05 10:23:06;;;;;;;17.00;3.20;;;23.50;99.90;;;;;;6133278;23;20093;-75
2022/03/05 10:25:39;;;;;;;10.32;2.65;;;23.50;99.90;;;;;;6133150;23;20002;-73
2022/03/05 10:28:09;;;;;;;11.98;3.28;;;23.50;99.90;;;;;;6159616;23;20435;-74
2022/03/05 10:30:40;;;;;;;15.68;3.35;;;23.50;99.90;;;;;;6159537;23;20470;-73
2022/03/05 10:33:09;;;;;;;12.55;3.28;;;23.50;99.90;;;;;;6133674;23;20431;-74
2022/03/05 10:35:36;;;;;;;9.68;2.75;;;23.50;99.90;;;;;;6133589;23;20037;-74
2022/03/05 10:38:04;;;;;;;11.40;2.90;;;23.50;99.90;;;;;;6159662;23;20021;-74
2022/03/05 10:40:36;;;;;;;16.05;3.20;;;23.50;99.90;;;;;;6159607;23;20001;-74
2022/03/05 10:43:08;;;;;;;15.05;2.85;;;23.50;99.90;;;;;;6133376;23;20006;-74
2022/03/05 10:45:58;;;;;;;11.75;3.63;;;23.50;99.90;;;;;;6159825;23;20001;-74
2022/03/05 10:48:30;;;;;;;11.63;2.80;;;23.50;99.90;;;;;;6159499;23;20006;-73
2022/03/05 10:50:59;;;;;;;13.68;3.80;;;23.50;99.90;;;;;;6159258;23;20235;-73
2022/03/05 10:53:44;;;;;;;12.75;3.30;;;23.50;99.90;;;;;;6159632;23;20002;-74
2022/03/05 10:56:28;;;;;;;15.48;3.33;;;23.40;99.90;;;;;;6133231;23;20098;-74
2022/03/05 10:59:03;;;;;;;12.77;2.85;;;23.40;99.90;;;;;;6133316;23;20477;-73
2022/03/05 11:01:32;;;;;;;15.10;3.05;;;23.40;99.90;;;;;;6133087;23;20009;-73
2022/03/05 11:04:00;;;;;;;14.52;3.20;;;23.40;99.90;;;;;;6158892;23;20020;-73
2022/03/05 11:06:27;;;;;;;11.77;3.00;;;23.40;99.90;;;;;;6158019;23;20001;-74
2022/03/05 11:08:55;;;;;;;15.18;3.83;;;23.40;99.90;;;;;;6131599;23;20037;-75
2022/03/05 11:11:23;;;;;;;11.75;3.25;;;23.40;99.90;;;;;;6131708;23;20009;-75
2022/03/05 11:13:50;;;;;;;9.85;2.40;;;23.40;99.90;;;;;;6131781;23;20005;-75
2022/03/05 11:16:17;;;;;;;13.95;3.33;;;23.40;99.90;;;;;;6157616;23;20005;-75
2022/03/05 11:18:45;;;;;;;12.98;2.83;;;23.30;99.90;;;;;;6131750;23;20009;-75
2022/03/05 11:21:13;;;;;;;11.25;2.80;;;23.30;99.90;;;;;;6131299;23;20013;-74
2022/03/05 11:23:42;;;;;;;12.25;3.42;;;23.30;99.90;;;;;;6158100;23;20001;-75
2022/03/05 11:26:11;;;;;;;14.25;3.35;;;23.30;99.90;;;;;;6131394;23;20048;-75
2022/03/05 11:28:45;;;;;;;13.18;3.15;;;23.30;99.90;;;;;;6157654;23;20052;-74
2022/03/05 11:31:36;;;;;;;16.67;3.17;;;23.30;99.90;;;;;;6131211;23;20064;-75
2022/03/05 11:34:21;;;;;;;17.27;3.30;;;23.30;99.90;;;;;;6139629;23;20006;-75
2022/03/05 11:36:50;;;;;;;18.77;3.75;;;23.40;99.90;;;;;;6131347;23;20002;-75
2022/03/05 11:39:44;;;;;;;14.43;3.08;;;23.40;99.90;;;;;;6131242;23;20014;-75
2022/03/05 11:42:11;;;;;;;13.80;2.85;;;23.40;99.90;;;;;;6151606;23;20009;-75
2022/03/05 11:44:43;;;;;;;12.30;3.00;;;23.40;99.90;;;;;;6157271;23;20006;-75
2022/03/05 11:47:20;;;;;;;15.75;3.72;;;23.40;99.90;;;;;;6157494;23;20072;-75
2022/03/05 11:49:59;;;;;;;11.80;3.47;;;23.40;99.90;;;;;;6131404;23;20012;-74
2022/03/05 11:53:01;;;;;;;17.98;3.40;;;23.40;99.90;;;;;;6131036;23;20005;-74
2022/03/05 11:55:29;;;;;;;14.10;3.47;;;23.40;99.90;;;;;;6125135;23;20005;-75
2022/03/05 11:57:57;;;;;;;12.02;2.22;;;23.50;99.90;;;;;;6131012;23;20493;-75
2022/03/05 12:00:30;;;;;;;2.58;0.82;;;23.40;99.90;;;;;;6130956;23;20001;-75
2022/03/05 12:02:59;;;;;;;4.10;0.60;;;22.90;99.90;;;;;;6157332;23;20358;-75
2022/03/05 12:05:42;;;;;;;2.70;0.85;;;22.60;99.90;;;;;;6130534;23;20013;-75
2022/03/05 12:08:13;;;;;;;0.75;0.35;;;22.50;99.90;;;;;;6156802;23;20013;-74
2022/03/05 12:11:00;;;;;;;2.08;0.40;;;22.40;99.90;;;;;;6156803;23;20080;-75
2022/03/05 12:13:31;;;;;;;0.60;0.40;;;22.30;99.90;;;;;;6156773;23;20007;-75
2022/03/05 12:15:58;;;;;;;0.85;0.35;;;22.20;99.90;;;;;;6156611;23;20423;-75
2022/03/05 12:18:28;;;;;;;0.50;0.45;;;22.10;99.90;;;;;;6156469;23;20423;-75
2022/03/05 12:20:58;;;;;;;1.08;0.40;;;21.90;99.90;;;;;;6157056;23;20383;-75
2022/03/05 12:23:25;;;;;;;0.70;0.40;;;21.90;99.90;;;;;;6130434;23;20009;-74
2022/03/05 12:25:56;;;;;;;0.77;0.50;;;21.90;99.90;;;;;;6156905;23;20005;-75
2022/03/05 12:28:25;;;;;;;4.15;1.10;;;21.70;99.90;;;;;;6156934;23;20033;-75
2022/03/05 12:30:58;;;;;;;6.32;1.65;;;21.60;99.90;;;;;;6130335;23;20006;-74
2022/03/05 12:33:26;;;;;;;3.45;0.98;;;21.30;99.90;;;;;;6156975;23;19998;-73
2022/03/05 12:35:55;;;;;;;3.28;0.90;;;20.80;99.90;;;;;;6156652;23;20005;-74
2022/03/05 12:38:24;;;;;;;6.05;1.50;;;20.80;99.90;;;;;;6143324;23;20002;-75
2022/03/05 12:40:51;;;;;;;1.25;0.90;;;20.70;99.90;;;;;;6119393;23;20096;-74
2022/03/05 12:43:19;;;;;;;4.18;1.25;;;20.60;99.90;;;;;;6146612;23;20006;-74
2022/03/05 12:45:48;;;;;;;3.10;0.90;;;20.50;99.90;;;;;;6171417;23;20009;-74
2022/03/05 12:48:18;;;;;;;1.20;0.80;;;20.40;99.90;;;;;;6136249;23;20043;-74
2022/03/05 12:50:50;;;;;;;2.30;0.90;;;20.40;99.90;;;;;;6156903;23;20371;-73
2022/03/05 12:53:20;;;;;;;3.45;1.20;;;20.40;99.90;;;;;;6156923;23;20390;-73